CheckWX is a tool to help pilots better visualize weather data.  It is not intended as a substitute for an official pre-flight weather briefing.

10:33:39 UTC

KAWG METAR
Washington Municipal Airport
Washington, Iowa, USA
Current

19 mins ago

KAWG 121015Z AUTO 31007KT 10SM FEW049 18/18 A2987 RMK AO2
Observed
Jul-12 @ 10:15 UTC
Wind
  • 310° at 7 KTS
Visibility
10 SM
Flight Rules
VFR
Cloud Levels
  • Few at 4,900' AGL
Temperature
18°C / 64°F
Dewpoint
18°C / 64°F
Humidity
100%
Altimeter
29.87" Hg
Pressure
1011.52 hPa
Previous

39 mins ago

KAWG 120955Z AUTO 30006KT 10SM CLR 18/18 A2987 RMK AO2
Observed
Jul-12 @ 09:55 UTC
Wind
  • 300° at 6 KTS
Visibility
10 SM
Flight Rules
VFR
Cloud Levels
  • Clear skies
Temperature
18°C / 64°F
Dewpoint
18°C / 64°F
Humidity
100%
Altimeter
29.87" Hg
Pressure
1011.52 hPa
Previous

59 mins ago

KAWG 120935Z AUTO 31005KT 10SM CLR 18/18 A2987 RMK AO2
Observed
Jul-12 @ 09:35 UTC
Wind
  • 310° at 5 KTS
Visibility
10 SM
Flight Rules
VFR
Cloud Levels
  • Clear skies
Temperature
18°C / 64°F
Dewpoint
18°C / 64°F
Humidity
100%
Altimeter
29.87" Hg
Pressure
1011.52 hPa